createdAt,value
2022-09-09T00:01:01.113Z,7.75
2022-09-09T00:02:13.957Z,9.31
2022-09-09T00:03:29.168Z,9.13
2022-09-09T00:04:36.116Z,8.31
2022-09-09T00:06:03.618Z,9.06
2022-09-09T00:07:13.411Z,8.88
2022-09-09T00:08:22.969Z,9.63
2022-09-09T00:09:32.667Z,9.63
2022-09-09T00:10:41.040Z,6.44
2022-09-09T00:11:50.756Z,8.88
2022-09-09T00:13:25.828Z,7.75
2022-09-09T00:14:43.413Z,8.88
2022-09-09T00:16:09.544Z,8.38
2022-09-09T00:17:25.137Z,8.13
2022-09-09T00:18:53.946Z,6.25
2022-09-09T00:20:06.933Z,8.00
2022-09-09T00:21:16.485Z,9.25
2022-09-09T00:22:23.381Z,7.75
2022-09-09T00:23:29.989Z,8.38
2022-09-09T00:24:51.747Z,7.81
2022-09-09T00:26:24.129Z,8.38
2022-09-09T00:27:33.717Z,7.31
2022-09-09T00:28:44.906Z,6.62
2022-09-09T00:29:54.582Z,8.81
2022-09-09T00:31:04.070Z,8.63
2022-09-09T00:32:16.967Z,9.75
2022-09-09T00:33:30.289Z,9.25
2022-09-09T00:34:36.716Z,9.31
2022-09-09T00:35:47.706Z,7.69
2022-09-09T00:36:54.119Z,8.13
2022-09-09T00:38:01.126Z,8.31
2022-09-09T00:39:05.991Z,7.37
2022-09-09T00:40:26.206Z,8.56
2022-09-09T00:41:55.324Z,9.25
2022-09-09T00:43:31.091Z,8.38
2022-09-09T00:44:38.466Z,8.69
2022-09-09T00:46:03.479Z,8.00
2022-09-09T00:47:47.209Z,6.87
2022-09-09T00:48:59.997Z,7.87
2022-09-09T00:50:06.933Z,9.31
2022-09-09T00:51:16.399Z,8.25
2022-09-09T00:52:39.660Z,7.69
2022-09-09T00:53:58.652Z,8.25
2022-09-09T00:55:04.403Z,7.37
2022-09-09T00:56:14.246Z,8.69
2022-09-09T00:57:30.214Z,8.94
2022-09-09T00:58:35.731Z,9.06
2022-09-09T01:01:12.937Z,7.87
2022-09-09T01:02:25.944Z,7.31
2022-09-09T01:03:08.515Z,7.00
2022-09-09T01:03:56.762Z,6.75
2022-09-09T01:05:05.258Z,7.94
2022-09-09T01:06:19.240Z,7.69
2022-09-09T01:07:23.207Z,7.56
2022-09-09T01:08:50.917Z,8.44
2022-09-09T01:10:00.687Z,8.13
2022-09-09T01:11:04.763Z,6.94
2022-09-09T01:12:20.223Z,5.44
2022-09-09T01:13:33.016Z,8.69
2022-09-09T01:14:39.942Z,7.00
2022-09-09T01:15:47.277Z,8.88
2022-09-09T01:16:54.817Z,8.06
2022-09-09T01:18:07.682Z,7.06
2022-09-09T01:19:16.146Z,7.75
2022-09-09T01:20:27.311Z,7.81
2022-09-09T01:21:42.878Z,9.13
2022-09-09T01:22:55.637Z,5.50
2022-09-09T01:24:24.511Z,7.81
2022-09-09T01:25:53.806Z,8.50
2022-09-09T01:27:00.738Z,8.44
2022-09-09T01:28:07.584Z,5.19
2022-09-09T01:29:14.859Z,6.62
2022-09-09T01:30:20.197Z,4.69
2022-09-09T01:31:32.783Z,9.25
2022-09-09T01:32:47.663Z,13.00
2022-09-09T01:33:52.050Z,9.88
2022-09-09T01:34:55.960Z,9.63
2022-09-09T01:36:13.658Z,7.19
2022-09-09T01:37:15.710Z,10.69
2022-09-09T01:38:20.053Z,11.31
2022-09-09T01:39:24.040Z,10.81
2022-09-09T01:40:29.496Z,8.50
2022-09-09T01:41:35.391Z,12.19
2022-09-09T01:42:39.417Z,14.00
2022-09-09T01:43:43.394Z,12.81
2022-09-09T01:44:47.324Z,17.94
2022-09-09T01:45:54.940Z,14.63
2022-09-09T01:47:02.212Z,9.50
2022-09-09T01:48:09.046Z,11.75
2022-09-09T01:49:15.885Z,11.38
2022-09-09T01:50:21.062Z,12.31
2022-09-09T01:51:25.752Z,13.75
2022-09-09T01:52:35.283Z,12.75
2022-09-09T01:53:41.969Z,7.69
2022-09-09T01:54:47.679Z,7.62
2022-09-09T01:56:04.852Z,10.31
2022-09-09T01:57:17.667Z,11.81
2022-09-09T01:59:00.628Z,12.31
2022-09-09T02:00:11.081Z,12.37
2022-09-09T02:01:21.011Z,10.38
2022-09-09T02:02:58.671Z,12.44
2022-09-09T02:04:05.621Z,11.12
2022-09-09T02:05:29.170Z,11.12
2022-09-09T02:06:38.718Z,9.63
2022-09-09T02:07:47.259Z,11.25
2022-09-09T02:08:53.675Z,10.56
2022-09-09T02:10:24.477Z,11.56
2022-09-09T02:11:30.259Z,12.81
2022-09-09T02:12:34.185Z,12.00
2022-09-09T02:13:40.459Z,13.00
2022-09-09T02:15:11.506Z,15.50
2022-09-09T02:16:24.492Z,15.81
2022-09-09T02:17:31.469Z,17.00
2022-09-09T02:18:59.519Z,15.81
2022-09-09T02:20:12.081Z,11.50
2022-09-09T02:21:17.652Z,11.94
2022-09-09T02:22:26.656Z,13.25
2022-09-09T02:23:33.629Z,14.81
2022-09-09T02:24:40.138Z,10.94
2022-09-09T02:25:45.603Z,10.69
2022-09-09T02:26:52.930Z,16.62
2022-09-09T02:27:57.808Z,14.38
2022-09-09T02:29:06.310Z,12.88
2022-09-09T02:30:14.022Z,13.56
2022-09-09T02:31:21.235Z,11.38
2022-09-09T02:32:26.371Z,8.44
2022-09-09T02:33:39.212Z,11.50
2022-09-09T02:34:46.157Z,9.88
2022-09-09T02:35:52.332Z,9.00
2022-09-09T02:37:00.667Z,10.94
2022-09-09T02:38:07.710Z,8.25
2022-09-09T02:39:12.764Z,8.25
2022-09-09T02:40:19.118Z,9.00
2022-09-09T02:41:33.480Z,7.75
2022-09-09T02:42:42.925Z,7.25
2022-09-09T02:43:47.094Z,8.88
2022-09-09T02:44:51.339Z,9.94
2022-09-09T02:46:00.879Z,9.25
2022-09-09T02:47:33.219Z,8.31
2022-09-09T02:48:41.852Z,8.06
2022-09-09T02:49:51.440Z,8.81
2022-09-09T02:50:58.482Z,8.56
2022-09-09T02:52:14.378Z,9.38
2022-09-09T02:53:20.350Z,8.69
2022-09-09T02:54:35.235Z,8.50
2022-09-09T02:55:45.075Z,9.81
2022-09-09T02:56:54.249Z,6.75
2022-09-09T02:58:00.517Z,6.69
2022-09-09T02:59:08.871Z,10.25
2022-09-09T03:00:13.756Z,7.19
2022-09-09T03:01:19.546Z,8.81
2022-09-09T03:02:23.608Z,8.50
2022-09-09T03:03:28.086Z,8.44
2022-09-09T03:04:32.195Z,9.69
2022-09-09T03:05:36.854Z,7.69
2022-09-09T03:06:41.232Z,9.06
2022-09-09T03:07:45.158Z,7.06
2022-09-09T03:08:49.772Z,8.56
2022-09-09T03:09:53.923Z,9.81
2022-09-09T03:11:02.176Z,10.13
2022-09-09T03:12:06.245Z,8.50
2022-09-09T03:13:10.621Z,14.31
2022-09-09T03:14:16.457Z,12.75
2022-09-09T03:15:20.451Z,11.38
2022-09-09T03:16:26.503Z,14.25
2022-09-09T03:17:30.505Z,18.69
2022-09-09T03:18:34.575Z,13.07
2022-09-09T03:19:38.645Z,16.31
2022-09-09T03:20:43.732Z,17.06
2022-09-09T03:21:50.279Z,18.56
2022-09-09T03:22:55.974Z,12.75
2022-09-09T03:23:59.901Z,14.69
2022-09-09T03:25:03.945Z,11.44
2022-09-09T03:26:08.190Z,8.56
2022-09-09T03:27:12.130Z,9.06
2022-09-09T03:28:16.265Z,11.88
2022-09-09T03:29:20.179Z,10.27
2022-09-09T03:30:26.331Z,9.13
2022-09-09T03:31:30.316Z,10.19
2022-09-09T03:32:34.347Z,10.88
2022-09-09T03:33:41.828Z,9.75
2022-09-09T03:34:49.531Z,10.00
2022-09-09T03:35:54.335Z,9.88
2022-09-09T03:36:58.585Z,10.25
2022-09-09T03:38:04.124Z,9.25
2022-09-09T03:39:08.026Z,9.81
2022-09-09T03:40:13.148Z,9.63
2022-09-09T03:41:17.152Z,9.25
2022-09-09T03:42:21.244Z,9.56
2022-09-09T03:43:28.603Z,10.38
2022-09-09T03:44:32.972Z,9.06
2022-09-09T03:45:36.921Z,7.62
2022-09-09T03:46:41.052Z,9.88
2022-09-09T03:47:45.019Z,9.69
2022-09-09T03:48:49.275Z,9.25
2022-09-09T03:49:53.188Z,10.88
2022-09-09T03:50:57.656Z,12.00
2022-09-09T03:52:01.663Z,10.50
2022-09-09T03:53:05.566Z,9.94
2022-09-09T03:54:14.672Z,10.00
2022-09-09T03:55:15.384Z,9.81
2022-09-09T03:56:21.459Z,9.75
2022-09-09T03:57:25.303Z,8.06
2022-09-09T03:58:29.640Z,9.13
2022-09-09T03:59:33.743Z,12.94
2022-09-09T04:00:37.728Z,10.69
2022-09-09T04:01:42.148Z,10.13
2022-09-09T04:02:46.147Z,26.06
2022-09-09T04:03:50.135Z,13.56
2022-09-09T04:04:54.066Z,22.50
2022-09-09T04:06:00.344Z,29.69
2022-09-09T04:07:04.917Z,30.87
2022-09-09T04:08:08.846Z,31.27
2022-09-09T04:09:14.307Z,34.73
2022-09-09T04:10:19.846Z,35.60
2022-09-09T04:11:23.947Z,40.13
2022-09-09T04:12:27.865Z,37.33
2022-09-09T04:13:31.859Z,24.50
2022-09-09T04:14:35.775Z,23.62
2022-09-09T04:15:39.677Z,22.44
2022-09-09T04:16:43.819Z,22.00
2022-09-09T04:17:47.804Z,21.12
2022-09-09T04:18:51.743Z,14.69
2022-09-09T04:19:55.737Z,21.31
2022-09-09T04:20:59.828Z,24.67
2022-09-09T04:22:03.763Z,25.50
2022-09-09T04:23:07.684Z,21.44
2022-09-09T04:24:11.681Z,20.56
2022-09-09T04:25:18.114Z,23.94
2022-09-09T04:26:25.205Z,16.06
2022-09-09T04:27:29.155Z,15.50
2022-09-09T04:28:37.170Z,11.63
2022-09-09T04:29:41.184Z,14.56
2022-09-09T04:30:46.388Z,13.31
2022-09-09T04:31:55.423Z,22.31
2022-09-09T04:32:56.157Z,26.31
2022-09-09T04:34:01.715Z,26.81
2022-09-09T04:35:08.192Z,22.73
2022-09-09T04:36:12.507Z,21.50
2022-09-09T04:37:16.435Z,22.69
2022-09-09T04:38:20.402Z,15.31
2022-09-09T04:39:24.460Z,12.31
2022-09-09T04:40:29.180Z,8.06
2022-09-09T04:41:33.179Z,15.94
2022-09-09T04:42:40.438Z,13.19
2022-09-09T04:43:44.758Z,13.44
2022-09-09T04:44:48.760Z,11.38
2022-09-09T04:45:53.264Z,14.25
2022-09-09T04:46:57.426Z,14.06
2022-09-09T04:48:01.592Z,14.06
2022-09-09T04:49:05.557Z,13.25
2022-09-09T04:50:10.475Z,13.06
2022-09-09T04:51:15.538Z,13.88
2022-09-09T04:52:19.498Z,14.93
2022-09-09T04:53:23.767Z,12.25
2022-09-09T04:54:27.737Z,22.00
2022-09-09T04:55:32.125Z,14.25
2022-09-09T04:56:36.122Z,13.50
2022-09-09T04:57:40.885Z,13.38
2022-09-09T04:58:47.802Z,9.88
2022-09-09T04:59:52.866Z,7.44
2022-09-09T05:00:58.403Z,18.50
2022-09-09T05:02:02.374Z,18.75
2022-09-09T05:03:08.542Z,16.00
2022-09-09T05:04:12.560Z,14.94
2022-09-09T05:05:18.115Z,15.06
2022-09-09T05:06:23.571Z,12.31
2022-09-09T05:07:28.777Z,16.69
2022-09-09T05:08:32.808Z,17.94
2022-09-09T05:09:36.764Z,24.00
2022-09-09T05:10:41.356Z,26.06
2022-09-09T05:11:47.440Z,27.75
2022-09-09T05:12:55.192Z,35.80
2022-09-09T05:13:59.322Z,46.75
2022-09-09T05:15:03.421Z,60.94
2022-09-09T05:16:07.628Z,61.81
2022-09-09T05:17:13.607Z,68.12
2022-09-09T05:18:19.800Z,69.44
2022-09-09T05:19:25.295Z,70.06
2022-09-09T05:20:30.363Z,73.12
2022-09-09T05:21:35.352Z,71.87
2022-09-09T05:22:39.836Z,74.47
2022-09-09T05:23:43.914Z,66.80
2022-09-09T05:24:48.288Z,68.06
2022-09-09T05:25:59.172Z,76.80
2022-09-09T05:27:03.342Z,81.12
2022-09-09T05:28:07.402Z,83.69
2022-09-09T05:29:11.442Z,104.94
2022-09-09T05:30:16.895Z,153.56
2022-09-09T05:31:21.422Z,93.12
2022-09-09T05:32:26.940Z,81.06
2022-09-09T05:33:30.931Z,92.00
2022-09-09T05:34:34.867Z,86.00
2022-09-09T05:35:38.702Z,83.40
2022-09-09T05:36:42.777Z,75.00
2022-09-09T05:37:46.767Z,81.87
2022-09-09T05:38:51.048Z,90.69
2022-09-09T05:39:54.986Z,84.94
2022-09-09T05:40:59.129Z,86.50
2022-09-09T05:42:04.849Z,86.63
2022-09-09T05:43:08.807Z,82.25
2022-09-09T05:44:12.964Z,85.87
2022-09-09T05:45:16.941Z,83.06
2022-09-09T05:46:24.597Z,88.31
2022-09-09T05:47:28.545Z,98.00
2022-09-09T05:48:33.686Z,105.25
2022-09-09T05:49:37.734Z,100.69
2022-09-09T05:50:42.012Z,100.50
2022-09-09T05:51:46.047Z,90.69
2022-09-09T05:52:51.520Z,101.50
2022-09-09T05:53:55.648Z,94.31
2022-09-09T05:54:59.646Z,95.06
2022-09-09T05:56:06.239Z,101.25
2022-09-09T05:57:10.497Z,97.88
2022-09-09T05:58:14.486Z,102.19
2022-09-09T05:59:18.442Z,100.19
2022-09-09T06:00:23.731Z,94.07
2022-09-09T06:01:31.530Z,89.94
2022-09-09T06:02:35.657Z,100.12
2022-09-09T06:03:41.451Z,106.87
2022-09-09T06:04:45.481Z,96.31
2022-09-09T06:05:53.969Z,106.00
2022-09-09T06:07:02.845Z,111.62
2022-09-09T06:08:05.164Z,110.37
2022-09-09T06:09:10.661Z,109.00
2022-09-09T06:10:16.328Z,118.75
2022-09-09T06:11:24.634Z,114.75
2022-09-09T06:12:28.527Z,110.25
2022-09-09T06:13:32.923Z,107.81
2022-09-09T06:14:36.905Z,123.38
2022-09-09T06:15:40.831Z,116.62
2022-09-09T06:16:44.884Z,119.75
2022-09-09T06:17:50.390Z,108.13
2022-09-09T06:18:55.684Z,121.50
2022-09-09T06:20:00.952Z,111.27
2022-09-09T06:21:07.109Z,113.25
2022-09-09T06:22:11.044Z,109.87
2022-09-09T06:23:14.991Z,110.19
2022-09-09T06:24:18.914Z,109.53
2022-09-09T06:25:22.863Z,120.19
2022-09-09T06:26:29.264Z,124.44
2022-09-09T06:27:34.304Z,116.00
2022-09-09T06:28:38.962Z,114.88
2022-09-09T06:29:42.855Z,120.25
2022-09-09T06:30:47.110Z,124.00
2022-09-09T06:31:51.076Z,116.19
2022-09-09T06:32:58.827Z,119.87
2022-09-09T06:34:06.731Z,109.25
2022-09-09T06:35:10.722Z,98.00
2022-09-09T06:36:20.285Z,96.27
2022-09-09T06:37:24.279Z,100.25
2022-09-09T06:38:28.581Z,106.12
2022-09-09T06:39:32.589Z,106.63
2022-09-09T06:40:36.597Z,112.31
2022-09-09T06:41:40.595Z,99.44
2022-09-09T06:42:44.580Z,101.20
2022-09-09T06:43:50.520Z,91.56
2022-09-09T06:44:54.490Z,104.00
2022-09-09T06:46:04.101Z,91.69
2022-09-09T06:47:10.052Z,82.00
2022-09-09T06:48:13.714Z,79.47
2022-09-09T06:49:17.772Z,75.31
2022-09-09T06:50:22.005Z,79.60
2022-09-09T06:51:28.610Z,69.00
2022-09-09T06:52:32.639Z,79.31
2022-09-09T06:53:37.421Z,77.19
2022-09-09T06:58:25.146Z,135.69
2022-09-09T06:59:29.088Z,124.44
2022-09-09T07:00:33.165Z,133.81
2022-09-09T07:01:42.078Z,131.06
2022-09-09T07:02:47.257Z,118.37
2022-09-09T07:03:53.489Z,124.38
2022-09-09T07:04:57.338Z,134.37
2022-09-09T07:06:03.094Z,121.69
2022-09-09T07:07:07.012Z,107.44
2022-09-09T07:08:14.015Z,106.44
2022-09-09T07:09:18.242Z,123.13
2022-09-09T07:10:25.034Z,114.69
2022-09-09T07:11:32.666Z,116.88
2022-09-09T07:12:36.536Z,122.75
2022-09-09T07:13:40.483Z,113.75
2022-09-09T07:14:44.408Z,104.06
2022-09-09T07:15:48.426Z,109.06
2022-09-09T07:16:54.537Z,117.62
2022-09-09T07:18:01.243Z,108.56
2022-09-09T07:19:07.001Z,105.00
2022-09-09T07:20:12.818Z,105.87
2022-09-09T07:21:18.551Z,143.59
2022-09-09T07:22:23.848Z,118.87
2022-09-09T07:23:27.856Z,136.25
2022-09-09T07:24:31.781Z,152.00
2022-09-09T07:25:35.756Z,114.25
2022-09-09T07:26:40.975Z,116.00
2022-09-09T07:27:44.900Z,121.62
2022-09-09T07:28:49.734Z,148.06
2022-09-09T07:29:54.823Z,156.56
2022-09-09T07:31:02.836Z,101.94
2022-09-09T07:32:06.932Z,98.75
2022-09-09T07:33:11.326Z,93.12
2022-09-09T07:34:15.266Z,110.63
2022-09-09T07:35:20.520Z,108.87
2022-09-09T07:36:32.489Z,123.81
2022-09-09T07:37:32.846Z,126.06
2022-09-09T07:38:44.845Z,140.56
2022-09-09T07:39:48.834Z,131.94
2022-09-09T07:40:52.895Z,121.13
2022-09-09T07:41:56.833Z,110.12
2022-09-09T07:43:01.021Z,120.19
2022-09-09T07:44:16.365Z,115.62
2022-09-09T07:45:20.290Z,99.56
2022-09-09T07:46:26.827Z,118.87
2022-09-09T07:47:31.982Z,116.25
2022-09-09T07:48:36.612Z,116.62
2022-09-09T07:49:42.178Z,133.20
2022-09-09T07:50:47.661Z,125.62
2022-09-09T07:51:51.671Z,120.06
2022-09-09T07:52:57.602Z,106.25
2022-09-09T07:54:05.026Z,94.25
2022-09-09T07:55:08.882Z,93.31
2022-09-09T07:56:16.977Z,90.62
2022-09-09T07:57:22.248Z,107.87
2022-09-09T07:58:26.351Z,100.25
2022-09-09T07:59:30.350Z,110.44
2022-09-09T08:00:34.366Z,119.06
2022-09-09T08:01:41.671Z,102.81
2022-09-09T08:02:45.824Z,86.81
2022-09-09T08:03:56.653Z,84.87
2022-09-09T08:05:00.844Z,91.50
2022-09-09T08:06:07.134Z,98.00
2022-09-09T08:07:11.084Z,92.69
2022-09-09T08:08:15.022Z,73.31
2022-09-09T08:09:19.108Z,82.69
2022-09-09T08:10:23.549Z,84.44
2022-09-09T08:11:29.605Z,88.06
2022-09-09T08:12:36.355Z,95.87
2022-09-09T08:13:41.859Z,103.69
2022-09-09T08:14:45.731Z,83.69
2022-09-09T08:15:49.719Z,121.31
2022-09-09T08:16:54.978Z,85.56
2022-09-09T08:17:59.288Z,79.44
2022-09-09T08:19:03.581Z,81.31
2022-09-09T08:20:07.916Z,101.62
2022-09-09T08:21:17.679Z,99.94
2022-09-09T08:22:21.670Z,105.63
2022-09-09T08:23:25.676Z,95.27
2022-09-09T08:24:31.333Z,84.00
2022-09-09T08:25:35.277Z,79.40
2022-09-09T08:26:42.319Z,88.19
2022-09-09T08:27:46.333Z,84.31
2022-09-09T08:28:51.907Z,97.60
2022-09-09T08:29:55.932Z,105.00
2022-09-09T08:31:12.075Z,78.50
2022-09-09T08:32:16.025Z,88.50
2022-09-09T08:33:19.961Z,98.50
2022-09-09T08:34:24.832Z,100.53
2022-09-09T08:35:28.768Z,96.75
2022-09-09T08:36:36.396Z,103.31
2022-09-09T08:37:42.355Z,101.50
2022-09-09T08:38:50.985Z,95.44
2022-09-09T08:39:54.956Z,85.69
2022-09-09T08:41:04.661Z,98.19
2022-09-09T08:42:11.623Z,85.12
2022-09-09T08:43:16.597Z,90.94
2022-09-09T08:44:49.047Z,97.44
2022-09-09T08:46:01.855Z,73.19
2022-09-09T08:47:31.782Z,70.31
2022-09-09T08:48:41.786Z,60.88
2022-09-09T08:49:54.669Z,97.19
2022-09-09T08:51:00.325Z,65.81
2022-09-09T08:52:08.823Z,76.37
2022-09-09T08:53:23.059Z,94.37
2022-09-09T08:54:50.590Z,76.81
2022-09-09T08:55:53.538Z,87.81
2022-09-09T08:56:58.037Z,67.37
2022-09-09T08:58:07.702Z,82.00
2022-09-09T08:59:15.005Z,62.31
2022-09-09T09:00:19.698Z,81.44
2022-09-09T09:01:44.981Z,73.75
2022-09-09T09:02:51.983Z,80.94
2022-09-09T09:04:18.288Z,73.87
2022-09-09T09:05:49.091Z,76.00
2022-09-09T09:06:58.779Z,79.06
2022-09-09T09:08:11.730Z,62.44
2022-09-09T09:09:33.416Z,66.62
2022-09-09T09:10:42.835Z,69.12
2022-09-09T09:11:52.124Z,96.63
2022-09-09T09:12:57.527Z,71.44
2022-09-09T09:14:24.837Z,64.06
2022-09-09T09:15:34.343Z,74.25
2022-09-09T09:16:41.432Z,65.00
2022-09-09T09:17:48.266Z,85.56
2022-09-09T09:18:53.978Z,86.50
2022-09-09T09:19:59.608Z,90.44
2022-09-09T09:21:24.483Z,78.62
2022-09-09T09:22:44.201Z,70.06
2022-09-09T09:23:51.159Z,84.13
2022-09-09T09:25:00.872Z,69.19
2022-09-09T09:26:10.439Z,56.94
2022-09-09T09:27:18.983Z,72.00
2022-09-09T09:28:28.784Z,62.31
2022-09-09T09:29:32.766Z,61.19
2022-09-09T09:30:39.717Z,59.69
2022-09-09T09:31:58.099Z,72.50
2022-09-09T09:33:20.721Z,71.06
2022-09-09T09:34:25.674Z,69.56
2022-09-09T09:35:29.778Z,57.81
2022-09-09T09:36:49.205Z,59.63
2022-09-09T09:40:13.731Z,60.69
2022-09-09T09:41:33.935Z,56.19
2022-09-09T09:42:38.688Z,77.31
2022-09-09T09:43:43.454Z,43.81
2022-09-09T09:44:47.808Z,72.56
2022-09-09T09:46:07.219Z,63.81
2022-09-09T09:47:15.291Z,73.31
2022-09-09T09:48:19.304Z,66.94
2022-09-09T09:49:24.090Z,48.56
2022-09-09T09:50:33.592Z,70.87
2022-09-09T09:51:35.719Z,64.80
2022-09-09T09:53:54.537Z,74.81
2022-09-09T09:55:08.255Z,78.37
2022-09-09T09:56:17.699Z,73.12
2022-09-09T09:57:26.828Z,59.31
2022-09-09T09:58:41.103Z,60.69
2022-09-09T09:59:47.901Z,79.31
2022-09-09T10:00:53.566Z,59.38
2022-09-09T10:02:00.498Z,62.40
2022-09-09T10:03:07.470Z,67.12
2022-09-09T10:04:22.944Z,60.50
2022-09-09T10:05:35.848Z,82.25
2022-09-09T10:06:38.793Z,80.00
2022-09-09T10:07:43.080Z,78.62
2022-09-09T10:08:48.023Z,76.87
2022-09-09T10:09:57.754Z,73.44
2022-09-09T10:11:28.741Z,70.19
2022-09-09T10:13:01.018Z,65.73
2022-09-09T10:14:08.063Z,64.81
2022-09-09T10:15:24.228Z,62.81
2022-09-09T10:16:55.694Z,73.69
2022-09-09T10:18:02.694Z,73.87
2022-09-09T10:19:12.412Z,83.94
2022-09-09T10:20:40.262Z,67.69
2022-09-09T10:22:20.329Z,64.31
2022-09-09T10:24:00.632Z,62.06
2022-09-09T10:25:13.300Z,48.19
2022-09-09T10:26:20.720Z,64.06
2022-09-09T10:27:39.722Z,76.31
2022-09-09T10:29:02.815Z,52.31
2022-09-09T10:30:21.524Z,43.33
2022-09-09T10:31:52.395Z,38.88
2022-09-09T10:33:24.860Z,83.87
2022-09-09T10:34:37.713Z,74.06
2022-09-09T10:35:44.626Z,80.50
2022-09-09T10:36:51.016Z,56.53
2022-09-09T10:38:15.956Z,68.81
2022-09-09T10:39:25.815Z,41.44
2022-09-09T10:40:36.223Z,46.81
2022-09-09T10:41:43.246Z,36.60
2022-09-09T10:42:47.430Z,45.50
2022-09-09T10:44:19.420Z,45.88
2022-09-09T10:45:41.689Z,45.31
2022-09-09T10:47:02.139Z,38.67
2022-09-09T10:48:09.282Z,40.88
2022-09-09T10:49:31.581Z,36.50
2022-09-09T10:51:00.431Z,44.13
2022-09-09T10:52:07.948Z,50.19
2022-09-09T10:53:14.882Z,39.13
2022-09-09T10:54:27.760Z,51.63
2022-09-09T10:55:34.626Z,49.56
2022-09-09T10:56:41.865Z,52.81
2022-09-09T10:57:49.623Z,45.07
2022-09-09T10:59:11.541Z,38.75
2022-09-09T11:01:57.711Z,55.81
2022-09-09T11:03:04.359Z,46.44
2022-09-09T11:04:20.340Z,52.13
2022-09-09T11:05:33.124Z,81.44
2022-09-09T11:06:40.262Z,82.88
2022-09-09T11:07:58.573Z,78.81
2022-09-09T11:09:04.895Z,77.31
2022-09-09T11:10:12.149Z,66.12
2022-09-09T11:11:21.814Z,75.94
2022-09-09T11:12:28.316Z,67.94
2022-09-09T11:13:54.465Z,58.25
2022-09-09T11:15:07.351Z,68.31
2022-09-09T11:16:26.495Z,66.56
2022-09-09T11:17:39.197Z,65.31
2022-09-09T11:18:46.197Z,65.69
2022-09-09T11:19:50.281Z,69.87
2022-09-09T11:20:57.315Z,72.94
2022-09-09T11:22:03.923Z,77.31
2022-09-09T11:23:16.941Z,76.81
2022-09-09T11:24:26.848Z,74.37
2022-09-09T11:25:47.053Z,68.62
2022-09-09T11:27:02.779Z,74.94
2022-09-09T11:28:15.511Z,77.00
2022-09-09T11:29:41.852Z,62.56
2022-09-09T11:31:00.768Z,68.87
2022-09-09T11:32:25.767Z,58.40
2022-09-09T11:33:44.601Z,69.06
2022-09-09T11:35:15.740Z,74.00
2022-09-09T11:36:57.258Z,79.44
2022-09-09T11:38:19.125Z,40.94
2022-09-09T11:39:51.378Z,77.87
2022-09-09T11:41:01.378Z,38.06
2022-09-09T11:42:15.099Z,41.93
2022-09-09T11:43:43.182Z,43.19
2022-09-09T11:44:47.667Z,35.93
2022-09-09T11:46:01.451Z,53.38
2022-09-09T11:47:07.420Z,74.12
2022-09-09T11:48:42.960Z,70.25
2022-09-09T11:49:46.978Z,79.44
2022-09-09T11:51:04.386Z,75.56
2022-09-09T11:52:43.034Z,73.44
2022-09-09T11:54:01.166Z,69.69
2022-09-09T11:55:22.956Z,80.19
2022-09-09T11:56:33.050Z,73.94
2022-09-09T11:57:38.316Z,73.37
2022-09-09T11:58:50.108Z,74.00
2022-09-09T11:59:53.798Z,84.50
2022-09-09T12:00:57.886Z,82.25
2022-09-09T12:02:03.883Z,67.75
2022-09-09T12:03:09.422Z,58.87
2022-09-09T12:04:35.786Z,61.44
2022-09-09T12:05:42.801Z,55.81
2022-09-09T12:06:55.474Z,53.00
2022-09-09T12:08:01.326Z,70.37
2022-09-09T12:09:39.475Z,78.44
2022-09-09T12:10:44.975Z,77.81
2022-09-09T12:11:50.039Z,82.00
2022-09-09T12:12:54.109Z,62.44
2022-09-09T12:14:00.997Z,66.50
2022-09-09T12:15:13.879Z,68.69
2022-09-09T12:16:32.954Z,69.19
2022-09-09T12:17:54.077Z,73.12
2022-09-09T12:19:22.024Z,66.19
2022-09-09T12:20:34.197Z,65.87
2022-09-09T12:21:47.067Z,54.44
2022-09-09T12:23:19.489Z,63.75
2022-09-09T12:24:26.400Z,61.37
2022-09-09T12:26:06.178Z,74.81
2022-09-09T12:27:26.565Z,54.87
2022-09-09T12:28:54.517Z,74.12
2022-09-09T12:30:07.493Z,62.40
2022-09-09T12:31:23.180Z,72.50
2022-09-09T12:32:28.752Z,74.56
2022-09-09T12:33:39.552Z,55.12
2022-09-09T12:35:06.935Z,75.75
2022-09-09T12:36:21.249Z,38.67
2022-09-09T12:37:39.628Z,44.25
2022-09-09T12:40:07.120Z,55.06
2022-09-09T12:41:26.335Z,33.69
2022-09-09T12:42:35.949Z,81.37
2022-09-09T12:43:39.496Z,68.25
2022-09-09T12:44:55.003Z,74.56
2022-09-09T12:46:13.842Z,69.62
2022-09-09T12:47:24.354Z,66.73
2022-09-09T12:48:32.094Z,75.56
2022-09-09T12:49:40.885Z,78.94
2022-09-09T12:50:50.613Z,75.62
2022-09-09T12:51:55.284Z,62.00
2022-09-09T12:53:14.221Z,79.81
2022-09-09T12:54:30.053Z,60.87
2022-09-09T12:55:33.401Z,75.94
2022-09-09T12:56:38.962Z,73.31
2022-09-09T12:57:45.478Z,78.44
2022-09-09T12:58:52.884Z,89.81
2022-09-09T12:59:59.940Z,78.94
2022-09-09T13:01:06.429Z,81.19
2022-09-09T13:02:25.380Z,64.12
2022-09-09T13:03:30.721Z,66.31
2022-09-09T13:04:34.865Z,65.62
2022-09-09T13:05:40.324Z,69.44
2022-09-09T13:06:44.501Z,70.50
2022-09-09T13:08:36.988Z,74.00
2022-09-09T13:08:56.232Z,74.12
2022-09-09T13:10:01.738Z,67.25
2022-09-09T13:11:11.342Z,68.94
2022-09-09T13:12:18.377Z,64.87
2022-09-09T13:13:26.949Z,61.44
2022-09-09T13:14:33.969Z,62.19
2022-09-09T13:15:40.377Z,65.62
2022-09-09T13:16:44.591Z,58.19
2022-09-09T13:17:57.579Z,66.00
2022-09-09T13:19:18.567Z,64.56
2022-09-09T13:20:25.290Z,51.50
2022-09-09T13:21:39.631Z,64.50
2022-09-09T13:22:45.452Z,59.00
2022-09-09T13:23:52.810Z,57.62
2022-09-09T13:25:08.550Z,60.19
2022-09-09T13:26:28.427Z,54.67
2022-09-09T13:27:35.470Z,56.07
2022-09-09T13:28:39.544Z,57.88
2022-09-09T13:29:46.502Z,52.00
2022-09-09T13:31:03.504Z,54.88
2022-09-09T13:32:10.123Z,62.94
2022-09-09T13:33:17.056Z,62.62
2022-09-09T13:34:35.701Z,72.00
2022-09-09T13:35:59.185Z,57.20
2022-09-09T13:37:06.217Z,60.19
2022-09-09T13:38:11.168Z,64.87
2022-09-09T13:39:17.360Z,62.06
2022-09-09T13:40:27.069Z,64.25
2022-09-09T13:41:37.033Z,62.56
2022-09-09T13:42:45.388Z,60.12
2022-09-09T13:43:54.289Z,66.07
2022-09-09T13:45:01.337Z,67.44
2022-09-09T13:46:08.341Z,72.13
2022-09-09T13:47:18.310Z,65.69
2022-09-09T13:48:22.411Z,64.94
2022-09-09T13:49:29.355Z,75.69
2022-09-09T13:50:35.972Z,79.25
2022-09-09T13:51:45.626Z,85.25
2022-09-09T13:52:51.308Z,74.06
2022-09-09T13:53:55.256Z,73.00
2022-09-09T13:54:59.193Z,62.25
2022-09-09T13:56:03.322Z,72.81
2022-09-09T13:57:09.279Z,80.25
2022-09-09T13:58:19.038Z,75.56
2022-09-09T13:59:23.116Z,80.81
2022-09-09T14:00:33.991Z,78.44
2022-09-09T14:01:39.563Z,72.19
2022-09-09T14:02:43.623Z,74.12
2022-09-09T14:03:47.718Z,72.37
2022-09-09T14:04:54.179Z,71.37
2022-09-09T14:05:58.209Z,67.87
2022-09-09T14:07:03.849Z,67.00
2022-09-09T14:08:15.789Z,79.87
2022-09-09T14:09:18.707Z,73.31
2022-09-09T14:10:23.659Z,67.44
2022-09-09T14:11:27.669Z,69.19
2022-09-09T14:12:32.178Z,79.94
2022-09-09T14:13:36.145Z,65.75
2022-09-09T14:14:40.454Z,68.81
2022-09-09T14:15:48.771Z,69.25
2022-09-09T14:16:52.732Z,74.31
2022-09-09T14:17:57.062Z,75.87
2022-09-09T14:19:01.180Z,79.81
2022-09-09T14:20:08.148Z,80.19
2022-09-09T14:21:12.661Z,81.19
2022-09-09T14:22:17.202Z,93.50
2022-09-09T14:23:25.392Z,82.94
2022-09-09T14:24:31.934Z,78.94
2022-09-09T14:25:35.949Z,82.06
2022-09-09T14:26:40.028Z,85.50
2022-09-09T14:27:43.997Z,84.87
2022-09-09T14:28:56.281Z,77.06
2022-09-09T14:29:54.648Z,75.50
2022-09-09T14:31:00.910Z,71.94
2022-09-09T14:32:11.968Z,76.44
2022-09-09T14:33:17.211Z,69.27
2022-09-09T14:34:22.747Z,70.87
2022-09-09T14:35:26.770Z,69.94
2022-09-09T14:36:30.713Z,72.62
2022-09-09T14:37:34.683Z,69.37
2022-09-09T14:38:39.857Z,66.50
2022-09-09T14:39:46.860Z,75.31
2022-09-09T14:40:50.938Z,72.81
2022-09-09T14:41:54.931Z,64.50
2022-09-09T14:42:59.043Z,63.75
2022-09-09T14:44:04.694Z,63.69
2022-09-09T14:45:10.692Z,62.60
2022-09-09T14:46:17.719Z,69.69
2022-09-09T14:47:21.693Z,67.69
2022-09-09T14:48:25.715Z,62.75
2022-09-09T14:50:41.654Z,63.06
2022-09-09T14:51:10.858Z,63.87
2022-09-09T14:51:50.386Z,57.13
2022-09-09T14:53:47.852Z,66.06
2022-09-09T14:54:16.972Z,57.06
2022-09-09T14:55:20.028Z,37.69
2022-09-09T14:56:29.264Z,44.94
2022-09-09T14:57:34.891Z,46.13
2022-09-09T14:58:41.829Z,50.50
2022-09-09T14:59:50.873Z,39.94
2022-09-09T15:00:58.792Z,48.44